Time,TemperatureF,DewpointF,PressureIn,WindDirection,WindDirectionDegrees,WindSpeedMPH,WindSpeedGustMPH,Humidity,HourlyPrecipIn,Conditions,Clouds,dailyrainin,SoftwareType,DateUTC
2013-05-18 00:01:00,54.6,48.2,30.10,North,5,0.0,0.0,79,0.00,BKN,,0.00,WeatherDisplay:10.37,2013-05-18 04:01:00,
2013-05-18 00:06:00,54.5,48.1,30.10,North,5,0.0,0.0,79,0.00,BKN,,0.00,WeatherDisplay:10.37,2013-05-18 04:06:00,
2013-05-18 00:11:00,54.2,48.2,30.10,North,5,0.0,0.0,80,0.00,BKN,,0.00,WeatherDisplay:10.37,2013-05-18 04:11:00,
2013-05-18 00:16:00,53.9,47.9,30.10,North,5,0.0,0.0,80,0.00,BKN,,0.00,WeatherDisplay:10.37,2013-05-18 04:16:00,
2013-05-18 00:21:00,53.7,47.7,30.10,North,5,0.0,0.0,80,0.00,BKN,,0.00,WeatherDisplay:10.37,2013-05-18 04:21:00,
2013-05-18 00:26:00,53.5,47.5,30.10,North,5,0.0,0.0,80,0.00,BKN,,0.00,WeatherDisplay:10.37,2013-05-18 04:26:00,
2013-05-18 00:31:00,53.3,47.6,30.10,North,5,0.0,0.0,81,0.00,BKN,,0.00,WeatherDisplay:10.37,2013-05-18 04:31:00,
2013-05-18 00:36:00,53.1,47.7,30.10,North,5,0.0,0.0,82,0.00,BKN,,0.00,WeatherDisplay:10.37,2013-05-18 04:36:00,
2013-05-18 00:41:00,52.9,47.6,30.10,North,5,0.0,0.0,82,0.00,BKN,,0.00,WeatherDisplay:10.37,2013-05-18 04:41:00,
2013-05-18 00:46:00,52.7,47.7,30.10,North,5,0.0,0.0,83,0.00,BKN,,0.00,WeatherDisplay:10.37,2013-05-18 04:46:00,
2013-05-18 00:51:00,52.6,47.6,30.10,North,5,0.0,0.0,83,0.00,BKN,,0.00,WeatherDisplay:10.37,2013-05-18 04:51:00,
2013-05-18 00:56:00,52.5,47.8,30.10,North,5,0.0,0.0,84,0.00,BKN,,0.00,WeatherDisplay:10.37,2013-05-18 04:56:00,
2013-05-18 01:01:00,52.4,47.7,30.10,North,5,0.0,0.0,84,0.00,SCT,,0.00,WeatherDisplay:10.37,2013-05-18 05:01:00,
2013-05-18 01:06:00,52.3,47.9,30.10,North,5,0.0,0.0,85,0.00,SCT,,0.00,WeatherDisplay:10.37,2013-05-18 05:06:00,
2013-05-18 01:11:00,52.3,47.9,30.10,North,5,0.0,0.0,85,0.00,SCT,,0.00,WeatherDisplay:10.37,2013-05-18 05:11:00,
2013-05-18 01:16:00,52.3,48.2,30.09,North,5,0.0,0.0,86,0.00,SCT,,0.00,WeatherDisplay:10.37,2013-05-18 05:16:00,
2013-05-18 01:21:00,52.3,48.2,30.09,North,5,0.0,0.0,86,0.00,SCT,,0.00,WeatherDisplay:10.37,2013-05-18 05:21:00,
2013-05-18 01:26:00,52.3,48.2,30.10,North,5,0.0,0.0,86,0.00,SCT,,0.00,WeatherDisplay:10.37,2013-05-18 05:26:00,
2013-05-18 01:31:00,52.3,48.2,30.10,North,5,0.0,0.0,86,0.00,SCT,,0.00,WeatherDisplay:10.37,2013-05-18 05:31:00,
2013-05-18 01:36:00,52.2,48.1,30.10,North,5,0.0,0.0,86,0.00,SCT,,0.00,WeatherDisplay:10.37,2013-05-18 05:36:00,
2013-05-18 01:41:00,52.2,48.1,30.10,North,5,0.0,0.0,86,0.00,SCT,,0.00,WeatherDisplay:10.37,2013-05-18 05:41:00,
2013-05-18 01:46:00,52.2,48.1,30.09,North,5,0.0,0.0,86,0.00,SCT,,0.00,WeatherDisplay:10.37,2013-05-18 05:46:00,
2013-05-18 01:51:00,52.3,48.5,30.10,North,5,0.0,0.0,87,0.00,SCT,,0.00,WeatherDisplay:10.37,2013-05-18 05:51:00,
2013-05-18 01:56:00,52.3,48.5,30.09,North,5,0.0,0.0,87,0.00,SCT,,0.00,WeatherDisplay:10.37,2013-05-18 05:56:00,
2013-05-18 02:01:00,52.2,48.4,30.09,North,5,0.0,0.0,87,0.00,BKN,,0.00,WeatherDisplay:10.37,2013-05-18 06:01:00,
2013-05-18 02:06:00,52.1,48.0,30.09,North,5,0.0,0.0,86,0.00,BKN,,0.00,WeatherDisplay:10.37,2013-05-18 06:06:00,
2013-05-18 02:11:00,51.9,47.8,30.09,North,5,0.0,0.0,86,0.00,BKN,,0.00,WeatherDisplay:10.37,2013-05-18 06:11:00,
2013-05-18 02:16:00,51.7,48.0,30.09,North,5,0.0,0.0,87,0.00,BKN,,0.00,WeatherDisplay:10.37,2013-05-18 06:16:00,
2013-05-18 02:21:00,51.5,47.8,30.09,North,5,0.0,0.0,87,0.00,BKN,,0.00,WeatherDisplay:10.37,2013-05-18 06:21:00,
2013-05-18 02:26:00,51.4,48.0,30.09,North,5,0.0,0.0,88,0.00,BKN,,0.00,WeatherDisplay:10.37,2013-05-18 06:26:00,
2013-05-18 02:31:00,51.3,47.9,30.09,North,5,0.0,0.0,88,0.00,BKN,,0.00,WeatherDisplay:10.37,2013-05-18 06:31:00,
2013-05-18 02:36:00,51.2,48.1,30.09,North,5,0.0,0.0,89,0.00,BKN,,0.00,WeatherDisplay:10.37,2013-05-18 06:36:00,
2013-05-18 02:41:00,51.1,48.0,30.08,North,5,0.0,0.0,89,0.00,BKN,,0.00,WeatherDisplay:10.37,2013-05-18 06:41:00,
2013-05-18 02:46:00,51.1,48.0,30.08,North,5,0.0,0.0,89,0.00,BKN,,0.00,WeatherDisplay:10.37,2013-05-18 06:46:00,
2013-05-18 02:51:00,51.1,48.3,30.08,North,5,0.0,0.0,90,0.00,BKN,,0.00,WeatherDisplay:10.37,2013-05-18 06:51:00,
2013-05-18 02:56:00,51.1,48.3,30.08,North,5,0.0,0.0,90,0.00,BKN,,0.00,WeatherDisplay:10.37,2013-05-18 06:56:00,
2013-05-18 03:01:00,51.1,48.3,30.08,North,5,0.0,0.0,90,0.00,FEW,,0.00,WeatherDisplay:10.37,2013-05-18 07:01:00,
2013-05-18 03:06:00,51.1,49.4,30.08,North,5,0.0,0.0,94,0.00,FEW,,0.00,WeatherDisplay:10.37,2013-05-18 07:06:00,
2013-05-18 03:11:00,51.0,48.5,30.08,North,5,0.0,0.0,91,0.00,FEW,,0.00,WeatherDisplay:10.37,2013-05-18 07:11:00,
2013-05-18 03:16:00,50.9,48.1,30.08,North,5,0.0,0.0,90,0.00,FEW,,0.00,WeatherDisplay:10.37,2013-05-18 07:16:00,
2013-05-18 03:21:00,50.8,48.3,30.08,North,5,0.1,1.1,91,0.00,FEW,,0.00,WeatherDisplay:10.37,2013-05-18 07:21:00,
2013-05-18 03:26:00,50.7,48.2,30.08,North,5,0.0,1.1,91,0.00,FEW,,0.00,WeatherDisplay:10.37,2013-05-18 07:26:00,
2013-05-18 03:31:00,50.7,48.5,30.08,North,5,0.0,0.0,92,0.00,FEW,,0.00,WeatherDisplay:10.37,2013-05-18 07:31:00,
2013-05-18 03:36:00,50.7,48.2,30.08,North,5,0.0,0.0,91,0.00,FEW,,0.00,WeatherDisplay:10.37,2013-05-18 07:36:00,
2013-05-18 03:41:00,50.6,48.1,30.08,North,5,0.0,1.1,91,0.00,FEW,,0.00,WeatherDisplay:10.37,2013-05-18 07:41:00,
2013-05-18 03:46:00,50.7,48.2,30.08,NE,47,1.6,4.6,91,0.00,FEW,,0.00,WeatherDisplay:10.37,2013-05-18 07:46:00,
2013-05-18 03:51:00,50.9,48.1,30.07,South,180,0.7,3.5,90,0.00,FEW,,0.00,WeatherDisplay:10.37,2013-05-18 07:51:00,
2013-05-18 03:56:00,51.3,47.9,30.07,East,93,1.3,2.3,88,0.00,FEW,,0.00,WeatherDisplay:10.37,2013-05-18 07:56:00,
2013-05-18 04:01:00,51.7,47.6,30.07,ESE,107,2.6,4.6,86,0.00,CLR,,0.00,WeatherDisplay:10.37,2013-05-18 08:01:00,
2013-05-18 04:06:00,52.3,47.6,30.07,NE,51,3.1,4.6,84,0.00,CLR,,0.00,WeatherDisplay:10.37,2013-05-18 08:06:00,
2013-05-18 04:11:00,52.7,47.4,30.08,NE,51,1.3,3.5,82,0.00,CLR,,0.00,WeatherDisplay:10.37,2013-05-18 08:11:00,
2013-05-18 04:16:00,53.1,47.4,30.07,NE,48,1.0,2.3,81,0.00,CLR,,0.00,WeatherDisplay:10.37,2013-05-18 08:16:00,
2013-05-18 04:21:00,53.4,47.7,30.07,East,82,2.7,3.5,81,0.00,CLR,,0.00,WeatherDisplay:10.37,2013-05-18 08:21:00,
2013-05-18 04:26:00,53.7,47.7,30.07,ESE,103,0.0,0.0,80,0.00,CLR,,0.00,WeatherDisplay:10.37,2013-05-18 08:26:00,
2013-05-18 04:31:00,53.8,47.4,30.07,ENE,76,1.6,3.5,79,0.00,CLR,,0.00,WeatherDisplay:10.37,2013-05-18 08:31:00,
2013-05-18 04:36:00,54.0,47.0,30.07,East,80,0.7,2.3,77,0.00,CLR,,0.00,WeatherDisplay:10.37,2013-05-18 08:36:00,
2013-05-18 04:41:00,54.1,47.0,30.07,SE,140,0.0,0.0,77,0.00,CLR,,0.00,WeatherDisplay:10.37,2013-05-18 08:41:00,
2013-05-18 04:46:00,54.1,46.7,30.07,ESE,120,0.8,5.8,76,0.00,CLR,,0.00,WeatherDisplay:10.37,2013-05-18 08:46:00,
2013-05-18 04:51:00,54.2,46.8,30.07,ESE,112,1.8,4.6,76,0.00,CLR,,0.00,WeatherDisplay:10.37,2013-05-18 08:51:00,
2013-05-18 04:56:00,54.2,46.8,30.07,ESE,107,0.4,2.3,76,0.00,CLR,,0.00,WeatherDisplay:10.37,2013-05-18 08:56:00,
2013-05-18 05:01:00,54.4,46.6,30.07,North,5,1.6,3.5,75,0.00,CLR,,0.00,WeatherDisplay:10.37,2013-05-18 09:01:00,
2013-05-18 05:06:00,54.6,46.8,30.07,SSE,160,0.8,2.3,75,0.00,CLR,,0.00,WeatherDisplay:10.37,2013-05-18 09:06:00,
2013-05-18 05:11:00,55.0,46.9,30.07,SW,226,0.5,2.3,74,0.00,CLR,,0.00,WeatherDisplay:10.37,2013-05-18 09:11:00,
2013-05-18 05:16:00,55.3,46.8,30.07,SE,142,0.2,1.1,73,0.00,CLR,,0.00,WeatherDisplay:10.37,2013-05-18 09:16:00,
2013-05-18 05:21:00,55.3,46.8,30.07,ENE,63,0.4,2.3,73,0.00,CLR,,0.00,WeatherDisplay:10.37,2013-05-18 09:21:00,
2013-05-18 05:26:00,55.4,46.2,30.07,SSE,151,3.3,4.6,71,0.00,CLR,,0.00,WeatherDisplay:10.37,2013-05-18 09:26:00,
2013-05-18 05:31:00,55.7,46.8,30.08,SW,229,0.0,1.1,72,0.00,CLR,,0.00,WeatherDisplay:10.37,2013-05-18 09:31:00,
2013-05-18 05:36:00,55.7,46.8,30.08,SSE,152,0.2,1.1,72,0.00,CLR,,0.00,WeatherDisplay:10.37,2013-05-18 09:36:00,
2013-05-18 05:41:00,55.5,46.6,30.08,SSE,152,0.0,0.0,72,0.00,CLR,,0.00,WeatherDisplay:10.37,2013-05-18 09:41:00,
2013-05-18 05:46:00,55.4,46.9,30.08,SSE,152,0.5,4.0,73,0.00,CLR,,0.00,WeatherDisplay:10.37,2013-05-18 09:46:00,
2013-05-18 05:51:00,55.1,47.0,30.08,SSE,152,0.0,0.0,74,0.00,CLR,,0.00,WeatherDisplay:10.37,2013-05-18 09:51:00,
2013-05-18 05:56:00,54.8,46.7,30.08,SSE,152,0.0,0.0,74,0.00,CLR,,0.00,WeatherDisplay:10.37,2013-05-18 09:56:00,
2013-05-18 06:01:00,54.4,46.6,30.08,ESE,120,0.3,2.3,75,0.00,BKN,,0.00,WeatherDisplay:10.37,2013-05-18 10:01:00,
2013-05-18 06:06:00,54.2,46.8,30.08,ESE,119,0.0,0.0,76,0.00,BKN,,0.00,WeatherDisplay:10.37,2013-05-18 10:06:00,
2013-05-18 06:11:00,53.9,47.2,30.08,ESE,120,0.4,2.3,78,0.00,BKN,,0.00,WeatherDisplay:10.37,2013-05-18 10:11:00,
2013-05-18 06:16:00,53.9,46.5,30.08,ESE,120,0.1,1.1,76,0.00,BKN,,0.00,WeatherDisplay:10.37,2013-05-18 10:16:00,
2013-05-18 06:21:00,54.0,46.6,30.09,East,99,1.5,3.5,76,0.00,BKN,,0.00,WeatherDisplay:10.37,2013-05-18 10:21:00,
2013-05-18 06:26:00,54.2,46.4,30.09,ESE,119,0.0,0.0,75,0.00,BKN,,0.00,WeatherDisplay:10.37,2013-05-18 10:26:00,
2013-05-18 06:31:00,54.4,47.0,30.09,ESE,119,0.0,0.0,76,0.00,BKN,,0.00,WeatherDisplay:10.37,2013-05-18 10:31:00,
2013-05-18 06:36:00,54.4,47.0,30.09,SE,129,1.2,2.3,76,0.00,BKN,,0.00,WeatherDisplay:10.37,2013-05-18 10:36:00,
2013-05-18 06:41:00,54.4,47.0,30.09,SE,129,0.0,0.0,76,0.00,BKN,,0.00,WeatherDisplay:10.37,2013-05-18 10:41:00,
2013-05-18 06:46:00,54.4,47.0,30.09,SE,130,0.0,0.0,76,0.00,BKN,,0.00,WeatherDisplay:10.37,2013-05-18 10:46:00,
2013-05-18 06:51:00,54.4,47.3,30.10,SE,130,0.0,0.0,77,0.00,BKN,,0.00,WeatherDisplay:10.37,2013-05-18 10:51:00,
2013-05-18 06:56:00,54.5,47.1,30.10,SE,130,0.3,2.3,76,0.00,BKN,,0.00,WeatherDisplay:10.37,2013-05-18 10:56:00,
2013-05-18 07:01:00,54.6,47.9,30.10,SE,130,0.0,0.0,78,0.00,BKN,,0.00,WeatherDisplay:10.37,2013-05-18 11:01:00,
2013-05-18 07:06:00,54.7,48.0,30.09,SE,130,0.7,2.3,78,0.00,BKN,,0.00,WeatherDisplay:10.37,2013-05-18 11:06:00,
2013-05-18 07:11:00,54.7,47.6,30.09,ESE,121,0.0,0.0,77,0.00,BKN,,0.00,WeatherDisplay:10.37,2013-05-18 11:11:00,
2013-05-18 07:16:00,54.8,47.4,30.10,SE,127,1.8,4.6,76,0.00,BKN,,0.00,WeatherDisplay:10.37,2013-05-18 11:16:00,
2013-05-18 07:21:00,54.9,47.8,30.10,NNE,17,0.1,1.1,77,0.00,BKN,,0.00,WeatherDisplay:10.37,2013-05-18 11:21:00,
2013-05-18 07:26:00,55.0,47.6,30.10,NNE,17,0.2,1.1,76,0.00,BKN,,0.00,WeatherDisplay:10.37,2013-05-18 11:26:00,
2013-05-18 07:31:00,55.0,47.2,30.10,ESE,103,0.0,0.0,75,0.00,BKN,,0.00,WeatherDisplay:10.37,2013-05-18 11:31:00,
2013-05-18 07:36:00,55.0,47.2,30.10,ESE,103,0.2,2.3,75,0.00,BKN,,0.00,WeatherDisplay:10.37,2013-05-18 11:36:00,
2013-05-18 07:41:00,55.2,47.8,30.10,NNW,330,1.5,3.5,76,0.00,BKN,,0.00,WeatherDisplay:10.37,2013-05-18 11:41:00,
2013-05-18 07:46:00,55.6,47.4,30.10,SSE,164,0.8,2.3,74,0.00,BKN,,0.00,WeatherDisplay:10.37,2013-05-18 11:46:00,
2013-05-18 07:51:00,56.1,47.2,30.11,SSW,192,0.7,2.3,72,0.00,BKN,,0.00,WeatherDisplay:10.37,2013-05-18 11:51:00,
2013-05-18 07:56:00,56.5,47.9,30.11,South,178,1.0,4.0,73,0.00,BKN,,0.00,WeatherDisplay:10.37,2013-05-18 11:56:00,
2013-05-18 08:01:00,56.8,47.9,30.11,SE,138,1.4,3.5,72,0.00,BKN,,0.00,WeatherDisplay:10.37,2013-05-18 12:01:00,
2013-05-18 08:06:00,57.2,47.9,30.11,SE,138,2.5,4.6,71,0.00,BKN,,0.00,WeatherDisplay:10.37,2013-05-18 12:06:00,
2013-05-18 08:11:00,57.5,47.4,30.12,SE,138,1.8,3.5,69,0.00,BKN,,0.00,WeatherDisplay:10.37,2013-05-18 12:11:00,
2013-05-18 08:16:00,57.9,48.6,30.12,SE,138,0.0,1.0,71,0.00,BKN,,0.00,WeatherDisplay:10.37,2013-05-18 12:16:00,
2013-05-18 08:21:00,58.2,48.5,30.12,SE,138,0.0,0.0,70,0.00,BKN,,0.00,WeatherDisplay:10.37,2013-05-18 12:21:00,
2013-05-18 08:26:00,58.5,49.5,30.12,SE,138,0.0,0.0,72,0.00,BKN,,0.00,WeatherDisplay:10.37,2013-05-18 12:26:00,
2013-05-18 08:31:00,58.7,49.3,30.12,SE,138,0.0,1.1,71,0.00,BKN,,0.00,WeatherDisplay:10.37,2013-05-18 12:31:00,
2013-05-18 08:36:00,59.0,49.2,30.12,SE,138,0.0,0.0,70,0.00,BKN,,0.00,WeatherDisplay:10.37,2013-05-18 12:36:00,
2013-05-18 08:41:00,59.3,49.1,30.12,SE,138,0.2,2.0,69,0.00,BKN,,0.00,WeatherDisplay:10.37,2013-05-18 12:41:00,
2013-05-18 08:46:00,59.6,49.4,30.12,SE,138,0.4,1.1,69,0.00,BKN,,0.00,WeatherDisplay:10.37,2013-05-18 12:46:00,
2013-05-18 08:51:00,59.9,49.3,30.12,SE,138,0.2,1.1,68,0.00,BKN,,0.00,WeatherDisplay:10.37,2013-05-18 12:51:00,
2013-05-18 08:56:00,60.4,49.4,30.11,ESE,111,0.6,2.3,67,0.00,BKN,,0.00,WeatherDisplay:10.37,2013-05-18 12:56:00,
2013-05-18 09:01:00,61.1,50.1,30.11,East,84,0.9,2.3,67,0.00,BKN,,0.00,WeatherDisplay:10.37,2013-05-18 13:01:00,
2013-05-18 09:06:00,61.7,50.2,30.11,SE,125,2.9,4.6,66,0.00,BKN,,0.00,WeatherDisplay:10.37,2013-05-18 13:06:00,
2013-05-18 09:11:00,62.1,50.2,30.11,South,172,3.7,6.9,65,0.00,BKN,,0.00,WeatherDisplay:10.37,2013-05-18 13:11:00,
2013-05-18 09:16:00,62.3,50.4,30.11,SSE,155,1.3,2.3,65,0.00,BKN,,0.00,WeatherDisplay:10.37,2013-05-18 13:16:00,
2013-05-18 09:21:00,62.6,50.7,30.11,SE,124,0.1,1.1,65,0.00,BKN,,0.00,WeatherDisplay:10.37,2013-05-18 13:21:00,
2013-05-18 09:26:00,62.7,51.2,30.11,SE,124,0.0,0.0,66,0.00,BKN,,0.00,WeatherDisplay:10.37,2013-05-18 13:26:00,
2013-05-18 09:31:00,62.9,51.4,30.11,SE,124,0.0,1.1,66,0.00,BKN,,0.00,WeatherDisplay:10.37,2013-05-18 13:31:00,
2013-05-18 09:36:00,63.2,54.0,30.12,SE,124,0.0,0.0,72,0.00,BKN,,0.00,WeatherDisplay:10.37,2013-05-18 13:36:00,
2013-05-18 09:41:00,63.4,53.4,30.11,SE,126,1.3,3.5,70,0.00,BKN,,0.00,WeatherDisplay:10.37,2013-05-18 13:41:00,
2013-05-18 09:46:00,63.7,52.5,30.11,SE,126,0.4,2.3,67,0.00,BKN,,0.00,WeatherDisplay:10.37,2013-05-18 13:46:00,
2013-05-18 09:51:00,64.2,53.8,30.11,SE,126,0.0,0.0,69,0.00,BKN,,0.00,WeatherDisplay:10.37,2013-05-18 13:51:00,
2013-05-18 09:56:00,65.0,52.5,30.11,SSE,155,3.0,4.6,64,0.00,BKN,,0.00,WeatherDisplay:10.37,2013-05-18 13:56:00,
2013-05-18 10:01:00,65.7,53.2,30.11,South,191,1.5,6.0,64,0.00,BKN,,0.00,WeatherDisplay:10.37,2013-05-18 14:01:00,
2013-05-18 10:06:00,66.2,54.1,30.11,ENE,67,0.7,2.3,65,0.00,BKN,,0.00,WeatherDisplay:10.37,2013-05-18 14:06:00,
2013-05-18 10:11:00,66.6,53.6,30.11,ESE,116,0.5,1.1,63,0.00,BKN,,0.00,WeatherDisplay:10.37,2013-05-18 14:11:00,
2013-05-18 10:16:00,66.8,55.1,30.11,ENE,57,2.1,3.5,66,0.00,BKN,,0.00,WeatherDisplay:10.37,2013-05-18 14:16:00,
2013-05-18 10:21:00,66.9,53.0,30.10,SE,128,0.8,3.5,61,0.00,BKN,,0.00,WeatherDisplay:10.37,2013-05-18 14:21:00,
2013-05-18 10:26:00,67.0,53.5,30.10,SSE,165,4.0,6.9,62,0.00,BKN,,0.00,WeatherDisplay:10.37,2013-05-18 14:26:00,
2013-05-18 10:31:00,67.0,54.8,30.10,SSE,159,3.0,5.8,65,0.00,BKN,,0.00,WeatherDisplay:10.37,2013-05-18 14:31:00,
2013-05-18 10:36:00,67.2,54.2,30.09,ESE,114,1.9,4.0,63,0.00,BKN,,0.00,WeatherDisplay:10.37,2013-05-18 14:36:00,
2013-05-18 10:41:00,67.6,55.8,30.09,ESE,104,0.9,3.5,66,0.00,BKN,,0.00,WeatherDisplay:10.37,2013-05-18 14:41:00,
2013-05-18 10:46:00,68.1,54.6,30.09,ESE,123,2.0,3.5,62,0.00,BKN,,0.00,WeatherDisplay:10.37,2013-05-18 14:46:00,
2013-05-18 10:51:00,68.5,55.4,30.09,ENE,74,0.4,3.5,63,0.00,BKN,,0.00,WeatherDisplay:10.37,2013-05-18 14:51:00,
2013-05-18 10:56:00,68.6,54.2,30.08,South,181,3.3,4.6,60,0.00,BKN,,0.00,WeatherDisplay:10.37,2013-05-18 14:56:00,
2013-05-18 11:01:00,68.7,55.2,30.08,SSE,162,3.1,4.6,62,0.00,OVC,,0.00,WeatherDisplay:10.37,2013-05-18 15:01:00,
2013-05-18 11:06:00,68.9,56.2,30.08,SSE,163,0.9,3.5,64,0.00,OVC,,0.00,WeatherDisplay:10.37,2013-05-18 15:06:00,
2013-05-18 11:11:00,69.3,55.3,30.08,SSE,156,2.0,4.6,61,0.00,OVC,,0.00,WeatherDisplay:10.37,2013-05-18 15:11:00,
2013-05-18 11:16:00,69.9,56.3,30.08,SE,142,0.5,2.3,62,0.00,OVC,,0.00,WeatherDisplay:10.37,2013-05-18 15:16:00,
2013-05-18 11:21:00,70.6,58.3,30.08,SE,145,1.0,3.5,65,0.00,OVC,,0.00,WeatherDisplay:10.37,2013-05-18 15:21:00,
2013-05-18 11:26:00,71.3,57.6,30.08,ESE,112,1.4,3.5,62,0.00,OVC,,0.00,WeatherDisplay:10.37,2013-05-18 15:26:00,
2013-05-18 11:31:00,71.7,57.1,30.08,SE,130,0.0,1.1,60,0.00,OVC,,0.00,WeatherDisplay:10.37,2013-05-18 15:31:00,
2013-05-18 11:36:00,72.3,59.9,30.08,SE,130,0.0,0.0,65,0.00,OVC,,0.00,WeatherDisplay:10.37,2013-05-18 15:36:00,
2013-05-18 11:41:00,72.7,58.5,30.08,SE,130,1.2,2.3,61,0.00,OVC,,0.00,WeatherDisplay:10.37,2013-05-18 15:41:00,
2013-05-18 11:46:00,72.9,59.1,30.09,South,184,0.0,0.0,62,0.00,OVC,,0.00,WeatherDisplay:10.37,2013-05-18 15:46:00,
2013-05-18 11:51:00,73.3,59.0,30.08,ENE,77,0.1,1.1,61,0.00,OVC,,0.00,WeatherDisplay:10.37,2013-05-18 15:51:00,
2013-05-18 11:56:00,73.7,58.9,30.08,ENE,77,0.2,1.1,60,0.00,OVC,,0.00,WeatherDisplay:10.37,2013-05-18 15:56:00,
2013-05-18 12:01:00,74.1,57.4,30.08,East,84,0.9,2.3,56,0.00,OVC,,0.00,WeatherDisplay:10.37,2013-05-18 16:01:00,
2013-05-18 12:06:00,74.4,56.7,30.08,SSE,157,1.8,4.6,54,0.00,OVC,,0.00,WeatherDisplay:10.37,2013-05-18 16:06:00,
2013-05-18 12:11:00,74.4,57.7,30.09,SW,228,0.4,2.3,56,0.00,OVC,,0.00,WeatherDisplay:10.37,2013-05-18 16:11:00,
2013-05-18 12:16:00,74.4,61.9,30.09,WNW,292,0.1,1.1,65,0.00,OVC,,0.00,WeatherDisplay:10.37,2013-05-18 16:16:00,
2013-05-18 12:21:00,74.4,58.2,30.08,NE,39,2.7,3.5,57,0.00,OVC,,0.00,WeatherDisplay:10.37,2013-05-18 16:21:00,
2013-05-18 12:26:00,74.4,59.1,30.08,NW,307,1.7,3.5,59,0.00,OVC,,0.00,WeatherDisplay:10.37,2013-05-18 16:26:00,
2013-05-18 12:31:00,74.2,58.5,30.08,NW,306,0.4,1.1,58,0.00,OVC,,0.00,WeatherDisplay:10.37,2013-05-18 16:31:00,
2013-05-18 12:36:00,74.4,60.1,30.08,North,360,1.1,3.5,61,0.00,OVC,,0.00,WeatherDisplay:10.37,2013-05-18 16:36:00,
2013-05-18 12:41:00,74.6,60.3,30.08,North,350,0.5,2.3,61,0.00,OVC,,0.00,WeatherDisplay:10.37,2013-05-18 16:41:00,
2013-05-18 12:46:00,74.9,61.0,30.07,NNW,348,0.3,1.1,62,0.00,OVC,,0.00,WeatherDisplay:10.37,2013-05-18 16:46:00,
2013-05-18 12:51:00,75.4,61.5,30.07,NW,319,4.4,5.8,62,0.00,OVC,,0.00,WeatherDisplay:10.37,2013-05-18 16:51:00,
2013-05-18 12:56:00,75.7,60.4,30.07,NNW,329,1.2,3.5,59,0.00,OVC,,0.00,WeatherDisplay:10.37,2013-05-18 16:56:00,
2013-05-18 13:01:00,75.9,59.6,30.07,NNW,329,1.2,3.5,57,0.00,BKN,,0.00,WeatherDisplay:10.37,2013-05-18 17:01:00,
2013-05-18 13:06:00,76.2,58.9,30.07,WNW,303,2.6,4.6,55,0.00,BKN,,0.00,WeatherDisplay:10.37,2013-05-18 17:06:00,
2013-05-18 13:11:00,76.6,61.2,30.07,NW,304,0.3,1.1,59,0.00,BKN,,0.00,WeatherDisplay:10.37,2013-05-18 17:11:00,
2013-05-18 13:16:00,77.0,58.0,30.07,WNW,303,0.9,3.5,52,0.00,BKN,,0.00,WeatherDisplay:10.37,2013-05-18 17:16:00,
2013-05-18 13:21:00,77.3,62.3,30.07,SW,217,0.3,1.1,60,0.00,BKN,,0.00,WeatherDisplay:10.37,2013-05-18 17:21:00,
2013-05-18 13:26:00,77.8,53.5,30.06,South,191,1.6,3.5,43,0.00,BKN,,0.00,WeatherDisplay:10.37,2013-05-18 17:26:00,
2013-05-18 13:31:00,78.2,53.9,30.06,South,178,0.5,2.3,43,0.00,BKN,,0.00,WeatherDisplay:10.37,2013-05-18 17:31:00,
2013-05-18 13:36:00,78.7,59.0,30.06,ENE,67,0.2,1.1,51,0.00,BKN,,0.00,WeatherDisplay:10.37,2013-05-18 17:36:00,
2013-05-18 13:41:00,79.1,58.3,30.06,NE,39,0.3,3.5,49,0.00,BKN,,0.00,WeatherDisplay:10.37,2013-05-18 17:41:00,
2013-05-18 13:46:00,79.5,56.9,30.06,East,80,1.0,2.3,46,0.00,BKN,,0.00,WeatherDisplay:10.37,2013-05-18 17:46:00,
2013-05-18 13:51:00,79.7,54.6,30.05,East,101,0.1,3.5,42,0.00,BKN,,0.00,WeatherDisplay:10.37,2013-05-18 17:51:00,
2013-05-18 13:56:00,80.0,53.5,30.05,ENE,77,1.8,3.5,40,0.00,BKN,,0.00,WeatherDisplay:10.37,2013-05-18 17:56:00,
2013-05-18 14:01:00,80.4,53.2,30.05,NW,314,1.2,3.5,39,0.00,BKN,,0.00,WeatherDisplay:10.37,2013-05-18 18:01:00,
2013-05-18 14:06:00,80.8,55.6,30.04,NNW,347,1.1,4.6,42,0.00,BKN,,0.00,WeatherDisplay:10.37,2013-05-18 18:06:00,
2013-05-18 14:11:00,80.8,53.5,30.04,SSE,167,4.1,5.8,39,0.00,BKN,,0.00,WeatherDisplay:10.37,2013-05-18 18:11:00,
2013-05-18 14:16:00,80.9,53.6,30.04,SSE,154,3.0,4.6,39,0.00,BKN,,0.00,WeatherDisplay:10.37,2013-05-18 18:16:00,
2013-05-18 14:21:00,80.8,54.2,30.04,SSE,164,1.8,3.5,40,0.00,BKN,,0.00,WeatherDisplay:10.37,2013-05-18 18:21:00,
2013-05-18 14:26:00,81.0,56.4,30.03,SSW,195,1.4,2.3,43,0.00,BKN,,0.00,WeatherDisplay:10.37,2013-05-18 18:26:00,
2013-05-18 14:31:00,81.1,52.4,30.04,South,176,4.7,6.9,37,0.00,BKN,,0.00,WeatherDisplay:10.37,2013-05-18 18:31:00,
2013-05-18 14:36:00,80.9,53.6,30.03,SSE,161,0.2,1.1,39,0.00,BKN,,0.00,WeatherDisplay:10.37,2013-05-18 18:36:00,
2013-05-18 14:41:00,80.9,49.9,30.03,South,179,0.2,1.1,34,0.00,BKN,,0.00,WeatherDisplay:10.37,2013-05-18 18:41:00,
2013-05-18 14:46:00,81.3,53.3,30.03,ESE,112,4.0,9.2,38,0.00,BKN,,0.00,WeatherDisplay:10.37,2013-05-18 18:46:00,
2013-05-18 14:51:00,81.5,48.8,30.03,SSE,150,0.0,0.0,32,0.00,BKN,,0.00,WeatherDisplay:10.37,2013-05-18 18:51:00,
2013-05-18 14:56:00,81.8,49.1,30.03,South,175,2.7,4.6,32,0.00,BKN,,0.00,WeatherDisplay:10.37,2013-05-18 18:56:00,
2013-05-18 15:01:00,81.9,47.4,30.03,SSE,150,0.3,3.5,30,0.00,BKN,,0.00,WeatherDisplay:10.37,2013-05-18 19:01:00,
2013-05-18 15:06:00,81.6,52.1,30.02,ENE,63,2.2,4.6,36,0.00,BKN,,0.00,WeatherDisplay:10.37,2013-05-18 19:06:00,
2013-05-18 15:11:00,81.5,52.7,30.02,SSE,159,0.1,1.1,37,0.00,BKN,,0.00,WeatherDisplay:10.37,2013-05-18 19:11:00,
2013-05-18 15:16:00,81.8,48.2,30.02,NNE,32,0.0,1.1,31,0.00,BKN,,0.00,WeatherDisplay:10.37,2013-05-18 19:16:00,
2013-05-18 15:21:00,82.1,49.3,30.02,ENE,67,1.2,3.5,32,0.00,BKN,,0.00,WeatherDisplay:10.37,2013-05-18 19:21:00,
2013-05-18 15:26:00,82.5,50.5,30.02,NE,43,0.1,1.1,33,0.00,BKN,,0.00,WeatherDisplay:10.37,2013-05-18 19:26:00,
2013-05-18 15:31:00,82.9,56.1,30.01,NE,43,0.0,0.0,40,0.00,BKN,,0.00,WeatherDisplay:10.37,2013-05-18 19:31:00,
2013-05-18 15:36:00,83.4,55.1,30.01,North,360,1.4,4.0,38,0.00,BKN,,0.00,WeatherDisplay:10.37,2013-05-18 19:36:00,
2013-05-18 15:41:00,83.5,56.6,30.01,North,351,2.2,3.5,40,0.00,BKN,,0.00,WeatherDisplay:10.37,2013-05-18 19:41:00,
2013-05-18 15:46:00,83.2,56.4,30.01,ENE,67,1.9,3.5,40,0.00,BKN,,0.00,WeatherDisplay:10.37,2013-05-18 19:46:00,
2013-05-18 15:51:00,82.9,53.2,30.01,ENE,68,0.1,1.1,36,0.00,BKN,,0.00,WeatherDisplay:10.37,2013-05-18 19:51:00,
2013-05-18 15:56:00,82.5,52.9,30.01,North,5,2.0,4.0,36,0.00,BKN,,0.00,WeatherDisplay:10.37,2013-05-18 19:56:00,
2013-05-18 16:01:00,82.2,51.0,30.01,North,360,0.2,1.1,34,0.00,BKN,,0.00,WeatherDisplay:10.37,2013-05-18 20:01:00,
2013-05-18 16:06:00,81.9,53.8,30.01,NW,326,0.0,1.1,38,0.00,BKN,,0.00,WeatherDisplay:10.37,2013-05-18 20:06:00,
2013-05-18 16:11:00,81.7,53.6,30.01,North,5,0.5,1.1,38,0.00,BKN,,0.00,WeatherDisplay:10.37,2013-05-18 20:11:00,
2013-05-18 16:16:00,81.8,55.1,30.01,South,178,1.9,5.8,40,0.00,BKN,,0.00,WeatherDisplay:10.37,2013-05-18 20:16:00,
2013-05-18 16:21:00,81.9,53.1,30.00,SSE,161,0.0,1.1,37,0.00,BKN,,0.00,WeatherDisplay:10.37,2013-05-18 20:21:00,
2013-05-18 16:26:00,82.2,58.1,30.00,ENE,76,0.8,3.5,44,0.00,BKN,,0.00,WeatherDisplay:10.37,2013-05-18 20:26:00,
2013-05-18 16:31:00,82.8,52.3,30.00,SE,128,0.4,2.3,35,0.00,BKN,,0.00,WeatherDisplay:10.37,2013-05-18 20:31:00,
2013-05-18 16:36:00,83.0,53.3,30.00,SSW,196,0.9,2.3,36,0.00,BKN,,0.00,WeatherDisplay:10.37,2013-05-18 20:36:00,
2013-05-18 16:41:00,82.7,52.3,30.00,SSW,201,2.8,3.5,35,0.00,BKN,,0.00,WeatherDisplay:10.37,2013-05-18 20:41:00,
2013-05-18 16:46:00,82.6,55.1,30.00,ESE,122,0.8,2.3,39,0.00,BKN,,0.00,WeatherDisplay:10.37,2013-05-18 20:46:00,
2013-05-18 16:51:00,82.9,54.0,30.00,ESE,104,1.2,5.0,37,0.00,BKN,,0.00,WeatherDisplay:10.37,2013-05-18 20:51:00,
2013-05-18 16:56:00,83.2,54.2,30.00,SE,126,2.6,5.8,37,0.00,BKN,,0.00,WeatherDisplay:10.37,2013-05-18 20:56:00,
2013-05-18 17:01:00,83.2,53.5,30.00,SE,131,0.1,1.1,36,0.00,SCT,,0.00,WeatherDisplay:10.37,2013-05-18 21:01:00,
2013-05-18 17:06:00,83.2,52.7,30.00,NE,56,1.1,5.0,35,0.00,SCT,,0.00,WeatherDisplay:10.37,2013-05-18 21:06:00,
2013-05-18 17:11:00,83.1,54.9,30.00,East,96,1.1,4.6,38,0.00,SCT,,0.00,WeatherDisplay:10.37,2013-05-18 21:11:00,
2013-05-18 17:16:00,82.8,53.9,29.99,North,355,1.9,3.5,37,0.00,SCT,,0.00,WeatherDisplay:10.37,2013-05-18 21:16:00,
2013-05-18 17:21:00,82.4,54.2,30.00,NNE,30,1.9,4.6,38,0.00,SCT,,0.00,WeatherDisplay:10.37,2013-05-18 21:21:00,
2013-05-18 17:26:00,82.1,53.2,30.00,SSE,163,1.4,3.5,37,0.00,SCT,,0.00,WeatherDisplay:10.37,2013-05-18 21:26:00,
2013-05-18 17:31:00,81.8,57.1,30.00,ESE,104,0.0,1.1,43,0.00,SCT,,0.00,WeatherDisplay:10.37,2013-05-18 21:31:00,
2013-05-18 17:36:00,81.6,52.8,29.99,ESE,106,1.5,3.5,37,0.00,SCT,,0.00,WeatherDisplay:10.37,2013-05-18 21:36:00,
2013-05-18 17:41:00,81.5,53.4,29.99,SE,124,0.1,1.1,38,0.00,SCT,,0.00,WeatherDisplay:10.37,2013-05-18 21:41:00,
2013-05-18 17:46:00,81.4,56.8,29.99,SE,124,0.1,1.1,43,0.00,SCT,,0.00,WeatherDisplay:10.37,2013-05-18 21:46:00,
2013-05-18 17:51:00,81.2,53.2,29.99,ENE,61,3.5,6.9,38,0.00,SCT,,0.00,WeatherDisplay:10.37,2013-05-18 21:51:00,
2013-05-18 17:56:00,81.2,53.2,29.99,East,80,1.3,2.3,38,0.00,SCT,,0.00,WeatherDisplay:10.37,2013-05-18 21:56:00,
2013-05-18 18:01:00,81.2,53.2,29.99,NE,41,0.9,2.3,38,0.00,SCT,,0.00,WeatherDisplay:10.37,2013-05-18 22:01:00,
2013-05-18 18:06:00,81.2,54.6,29.99,NE,41,0.5,2.3,40,0.00,SCT,,0.00,WeatherDisplay:10.37,2013-05-18 22:06:00,
2013-05-18 18:11:00,81.2,52.4,29.99,NE,41,0.8,2.3,37,0.00,SCT,,0.00,WeatherDisplay:10.37,2013-05-18 22:11:00,
2013-05-18 18:16:00,81.3,53.3,29.99,North,360,2.5,4.6,38,0.00,SCT,,0.00,WeatherDisplay:10.37,2013-05-18 22:16:00,
2013-05-18 18:21:00,81.5,56.8,29.99,NNE,29,2.7,6.9,43,0.00,SCT,,0.00,WeatherDisplay:10.37,2013-05-18 22:21:00,
2013-05-18 18:26:00,81.3,57.9,29.99,SE,135,0.2,1.1,45,0.00,SCT,,0.00,WeatherDisplay:10.37,2013-05-18 22:26:00,
2013-05-18 18:31:00,81.4,53.4,29.99,SE,135,0.3,1.1,38,0.00,SCT,,0.00,WeatherDisplay:10.37,2013-05-18 22:31:00,
2013-05-18 18:36:00,81.5,55.5,29.99,NE,42,0.4,1.1,41,0.00,SCT,,0.00,WeatherDisplay:10.37,2013-05-18 22:36:00,
2013-05-18 18:41:00,81.5,54.8,29.99,East,101,0.2,1.1,40,0.00,SCT,,0.00,WeatherDisplay:10.37,2013-05-18 22:41:00,
2013-05-18 18:46:00,81.2,54.6,29.99,North,9,0.1,2.3,40,0.00,SCT,,0.00,WeatherDisplay:10.37,2013-05-18 22:46:00,
2013-05-18 18:51:00,81.1,60.1,29.99,NE,56,0.4,2.3,49,0.00,SCT,,0.00,WeatherDisplay:10.37,2013-05-18 22:51:00,
2013-05-18 18:56:00,80.9,53.6,29.99,NE,56,0.7,2.3,39,0.00,SCT,,0.00,WeatherDisplay:10.37,2013-05-18 22:56:00,
2013-05-18 19:01:00,80.8,54.9,29.99,NE,46,2.3,4.6,41,0.00,SCT,,0.00,WeatherDisplay:10.37,2013-05-18 23:01:00,
2013-05-18 19:06:00,80.6,53.4,29.99,NE,47,0.1,1.1,39,0.00,SCT,,0.00,WeatherDisplay:10.37,2013-05-18 23:06:00,
2013-05-18 19:11:00,80.5,54.0,29.99,NE,47,0.2,1.1,40,0.00,SCT,,0.00,WeatherDisplay:10.37,2013-05-18 23:11:00,
2013-05-18 19:16:00,80.3,54.5,29.99,NE,47,0.6,2.3,41,0.00,SCT,,0.00,WeatherDisplay:10.37,2013-05-18 23:16:00,
2013-05-18 19:21:00,80.1,55.6,29.99,NW,319,3.7,3.7,43,0.00,SCT,,0.00,WeatherDisplay:10.37,2013-05-18 23:21:00,
2013-05-18 19:26:00,79.5,59.2,29.99,NW,319,0.6,2.3,50,0.00,SCT,,0.00,WeatherDisplay:10.37,2013-05-18 23:26:00,
2013-05-18 19:31:00,78.7,57.4,29.99,NW,324,0.9,3.5,48,0.00,SCT,,0.00,WeatherDisplay:10.37,2013-05-18 23:31:00,
2013-05-18 19:36:00,78.0,56.1,29.99,NNE,19,1.4,3.5,47,0.00,SCT,,0.00,WeatherDisplay:10.37,2013-05-18 23:36:00,
2013-05-18 19:41:00,77.6,56.4,29.99,NNE,19,0.0,0.0,48,0.00,SCT,,0.00,WeatherDisplay:10.37,2013-05-18 23:41:00,
2013-05-18 19:46:00,77.2,56.6,30.00,NE,55,0.3,2.0,49,0.00,SCT,,0.00,WeatherDisplay:10.37,2013-05-18 23:46:00,
2013-05-18 19:51:00,76.8,57.3,30.00,NNE,20,1.1,3.5,51,0.00,SCT,,0.00,WeatherDisplay:10.37,2013-05-18 23:51:00,
2013-05-18 19:56:00,76.4,56.4,30.00,East,101,2.8,4.6,50,0.00,SCT,,0.00,WeatherDisplay:10.37,2013-05-18 23:56:00,
2013-05-18 20:01:00,75.9,56.5,30.00,NE,55,0.7,3.5,51,0.00,SCT,,0.00,WeatherDisplay:10.37,2013-05-19 00:01:00,
2013-05-18 20:06:00,75.5,57.2,30.00,NE,55,0.0,0.0,53,0.00,SCT,,0.00,WeatherDisplay:10.37,2013-05-19 00:06:00,
2013-05-18 20:11:00,75.1,56.8,30.00,NE,55,0.0,0.0,53,0.00,SCT,,0.00,WeatherDisplay:10.37,2013-05-19 00:11:00,
2013-05-18 20:16:00,74.6,57.4,30.00,NE,55,0.2,1.1,55,0.00,SCT,,0.00,WeatherDisplay:10.37,2013-05-19 00:16:00,
2013-05-18 20:21:00,74.0,56.8,30.00,NE,55,0.0,0.0,55,0.00,SCT,,0.00,WeatherDisplay:10.37,2013-05-19 00:21:00,
2013-05-18 20:26:00,73.4,58.2,30.00,NE,55,0.0,0.0,59,0.00,SCT,,0.00,WeatherDisplay:10.37,2013-05-19 00:26:00,
2013-05-18 20:31:00,72.9,57.7,30.00,NE,55,0.0,0.0,59,0.00,SCT,,0.00,WeatherDisplay:10.37,2013-05-19 00:31:00,
2013-05-18 20:36:00,72.3,57.2,30.00,NE,55,0.0,0.0,59,0.00,SCT,,0.00,WeatherDisplay:10.37,2013-05-19 00:36:00,
2013-05-18 20:41:00,71.8,58.1,30.00,NE,55,0.8,2.3,62,0.00,SCT,,0.00,WeatherDisplay:10.37,2013-05-19 00:41:00,
2013-05-18 20:46:00,71.3,57.6,30.00,NE,55,0.0,0.0,62,0.00,SCT,,0.00,WeatherDisplay:10.37,2013-05-19 00:46:00,
2013-05-18 20:51:00,70.8,57.6,30.00,NE,55,0.0,0.0,63,0.00,SCT,,0.00,WeatherDisplay:10.37,2013-05-19 00:51:00,
2013-05-18 20:56:00,70.4,57.6,30.01,NE,55,0.0,0.0,64,0.00,SCT,,0.00,WeatherDisplay:10.37,2013-05-19 00:56:00,
2013-05-18 21:01:00,70.1,57.4,30.01,NE,55,0.0,0.0,64,0.00,SCT,,0.00,WeatherDisplay:10.37,2013-05-19 01:01:00,
2013-05-18 21:06:00,69.7,57.0,30.01,NE,55,0.0,0.0,64,0.00,SCT,,0.00,WeatherDisplay:10.37,2013-05-19 01:06:00,
2013-05-18 21:11:00,69.4,56.7,30.01,NE,55,0.0,0.0,64,0.00,SCT,,0.00,WeatherDisplay:10.37,2013-05-19 01:11:00,
2013-05-18 21:16:00,69.1,56.4,30.01,NE,55,0.2,2.3,64,0.00,SCT,,0.00,WeatherDisplay:10.37,2013-05-19 01:16:00,
2013-05-18 21:21:00,69.0,57.2,30.01,NE,45,0.0,0.0,66,0.00,SCT,,0.00,WeatherDisplay:10.37,2013-05-19 01:21:00,
2013-05-18 21:26:00,68.8,57.0,30.01,NE,45,0.0,0.0,66,0.00,SCT,,0.00,WeatherDisplay:10.37,2013-05-19 01:26:00,
2013-05-18 21:31:00,68.6,57.6,30.01,NE,45,0.0,0.0,68,0.00,SCT,,0.00,WeatherDisplay:10.37,2013-05-19 01:31:00,
2013-05-18 21:36:00,68.4,57.4,30.01,NE,45,0.0,0.0,68,0.00,SCT,,0.00,WeatherDisplay:10.37,2013-05-19 01:36:00,
2013-05-18 21:41:00,68.3,56.9,30.01,NE,45,0.0,0.0,67,0.00,SCT,,0.00,WeatherDisplay:10.37,2013-05-19 01:41:00,
2013-05-18 21:46:00,68.1,57.1,30.01,NE,45,0.0,0.0,68,0.00,SCT,,0.00,WeatherDisplay:10.37,2013-05-19 01:46:00,
2013-05-18 21:51:00,67.9,56.9,30.01,NE,45,0.0,0.0,68,0.00,SCT,,0.00,WeatherDisplay:10.37,2013-05-19 01:51:00,
2013-05-18 21:56:00,67.6,56.7,30.01,ESE,107,0.3,2.3,68,0.00,SCT,,0.00,WeatherDisplay:10.37,2013-05-19 01:56:00,
2013-05-18 22:01:00,67.4,56.9,30.02,ESE,107,0.0,0.0,69,0.00,SCT,,0.00,WeatherDisplay:10.37,2013-05-19 02:01:00,
2013-05-18 22:06:00,67.2,57.1,30.02,ESE,107,0.0,0.0,70,0.00,SCT,,0.00,WeatherDisplay:10.37,2013-05-19 02:06:00,
2013-05-18 22:11:00,66.9,56.8,30.02,ESE,107,0.1,1.1,70,0.00,SCT,,0.00,WeatherDisplay:10.37,2013-05-19 02:11:00,
2013-05-18 22:16:00,66.7,57.0,30.02,ENE,74,0.0,1.1,71,0.00,SCT,,0.00,WeatherDisplay:10.37,2013-05-19 02:16:00,
2013-05-18 22:21:00,66.7,57.4,30.02,ENE,74,0.2,1.1,72,0.00,SCT,,0.00,WeatherDisplay:10.37,2013-05-19 02:21:00,
2013-05-18 22:26:00,66.8,57.5,30.02,SSE,155,0.1,1.1,72,0.00,SCT,,0.00,WeatherDisplay:10.37,2013-05-19 02:26:00,
2013-05-18 22:31:00,67.0,58.4,30.02,SSE,163,1.0,3.5,74,0.00,SCT,,0.00,WeatherDisplay:10.37,2013-05-19 02:31:00,
2013-05-18 22:36:00,67.3,59.1,30.02,SSE,163,0.0,1.1,75,0.00,SCT,,0.00,WeatherDisplay:10.37,2013-05-19 02:36:00,
2013-05-18 22:41:00,67.4,59.6,30.02,South,174,0.5,3.5,76,0.00,SCT,,0.00,WeatherDisplay:10.37,2013-05-19 02:41:00,
2013-05-18 22:46:00,67.5,59.7,30.02,SSE,159,0.1,1.1,76,0.00,SCT,,0.00,WeatherDisplay:10.37,2013-05-19 02:46:00,
2013-05-18 22:51:00,67.7,60.2,30.02,ESE,119,0.7,2.3,77,0.00,SCT,,0.00,WeatherDisplay:10.37,2013-05-19 02:51:00,
2013-05-18 22:56:00,67.9,60.4,30.01,ENE,57,0.0,0.0,77,0.00,SCT,,0.00,WeatherDisplay:10.37,2013-05-19 02:56:00,
2013-05-18 23:01:00,68.1,61.0,30.01,SE,133,2.3,4.6,78,0.00,BKN,,0.00,WeatherDisplay:10.37,2013-05-19 03:01:00,
2013-05-18 23:06:00,68.2,61.1,30.01,SSE,166,1.8,5.0,78,0.00,BKN,,0.00,WeatherDisplay:10.37,2013-05-19 03:06:00,
2013-05-18 23:11:00,68.3,61.2,30.01,SSE,161,0.9,2.3,78,0.00,BKN,,0.00,WeatherDisplay:10.37,2013-05-19 03:11:00,
2013-05-18 23:16:00,68.5,61.4,30.01,SSE,157,1.5,3.5,78,0.00,BKN,,0.00,WeatherDisplay:10.37,2013-05-19 03:16:00,
2013-05-18 23:21:00,68.7,61.6,30.01,South,176,0.6,2.3,78,0.00,BKN,,0.00,WeatherDisplay:10.37,2013-05-19 03:21:00,
2013-05-18 23:26:00,68.8,61.3,30.01,SSE,165,2.8,5.8,77,0.00,BKN,,0.00,WeatherDisplay:10.37,2013-05-19 03:26:00,
2013-05-18 23:31:00,68.8,61.3,30.01,SSE,154,1.0,4.6,77,0.00,BKN,,0.00,WeatherDisplay:10.37,2013-05-19 03:31:00,
2013-05-18 23:36:00,68.8,61.3,30.01,South,178,2.4,5.8,77,0.00,BKN,,0.00,WeatherDisplay:10.37,2013-05-19 03:36:00,
2013-05-18 23:41:00,68.7,61.6,30.01,SSE,156,3.0,5.8,78,0.00,BKN,,0.00,WeatherDisplay:10.37,2013-05-19 03:41:00,
2013-05-18 23:46:00,68.7,61.6,30.01,SSE,156,2.1,4.0,78,0.00,BKN,,0.00,WeatherDisplay:10.37,2013-05-19 03:46:00,
2013-05-18 23:51:00,68.6,61.5,30.01,SE,140,1.6,7.0,78,0.00,BKN,,0.00,WeatherDisplay:10.37,2013-05-19 03:51:00,
2013-05-18 23:56:00,68.4,61.6,30.01,SSE,164,4.3,6.9,79,0.00,BKN,,0.00,WeatherDisplay:10.37,2013-05-19 03:56:00,